Time;durP1;ratioP1;P1;durP2;ratioP2;P2;SDS_P1;SDS_P2;PMS_P1;PMS_P2;Temp;Humidity;BMP_temperature;BMP_pressure;BME280_temperature;BME280_humidity;BME280_pressure;Samples;Min_cycle;Max_cycle;Signal;HPM_P1;HPM_P2
2021/03/04 00:00:35;;;;;;;83.40;32.03;;;0.60;84.70;;;;;;5093644;28;20103;-65
2021/03/04 00:03:06;;;;;;;94.88;34.85;;;0.60;84.90;;;;;;5093660;28;20032;-65
2021/03/04 00:05:32;;;;;;;91.63;34.42;;;0.60;84.90;;;;;;5093521;28;20024;-65
2021/03/04 00:07:59;;;;;;;86.63;32.85;;;0.60;84.90;;;;;;5093774;28;20067;-65
2021/03/04 00:10:25;;;;;;;81.05;31.02;;;0.60;84.90;;;;;;5075828;28;20075;-65
2021/03/04 00:12:51;;;;;;;77.65;31.35;;;0.60;84.90;;;;;;5093574;28;20038;-65
2021/03/04 00:15:22;;;;;;;90.38;35.83;;;0.60;84.80;;;;;;5075389;28;20446;-65
2021/03/04 00:17:48;;;;;;;98.47;35.63;;;0.60;84.70;;;;;;5075390;28;20072;-65
2021/03/04 00:20:17;;;;;;;89.50;36.05;;;0.50;84.40;;;;;;5093619;28;20487;-66
2021/03/04 00:22:43;;;;;;;88.28;31.95;;;0.50;84.70;;;;;;5075504;28;20035;-65
2021/03/04 00:25:10;;;;;;;94.15;36.38;;;0.50;84.70;;;;;;5093522;28;20028;-65
2021/03/04 00:27:36;;;;;;;81.00;30.08;;;0.50;84.60;;;;;;5075141;28;20091;-66
2021/03/04 00:30:04;;;;;;;68.57;28.63;;;0.50;84.60;;;;;;5093548;28;20020;-65
2021/03/04 00:32:30;;;;;;;58.00;25.95;;;0.50;84.50;;;;;;5075281;28;20101;-65
2021/03/04 00:34:56;;;;;;;54.80;24.65;;;0.50;84.50;;;;;;5074663;28;20477;-66
2021/03/04 00:37:22;;;;;;;47.38;22.02;;;0.50;84.70;;;;;;5075424;28;20367;-65
2021/03/04 00:39:47;;;;;;;58.78;23.10;;;0.50;84.90;;;;;;5075134;28;20030;-65
2021/03/04 00:42:13;;;;;;;65.25;25.00;;;0.50;85.00;;;;;;5075080;28;20024;-65
2021/03/04 00:44:39;;;;;;;106.10;39.13;;;0.50;84.90;;;;;;5093455;28;20039;-65
2021/03/04 00:47:05;;;;;;;103.22;38.30;;;0.50;85.20;;;;;;5074607;28;20040;-65
2021/03/04 00:49:31;;;;;;;73.03;28.30;;;0.50;85.40;;;;;;5092914;28;20085;-65
2021/03/04 00:51:57;;;;;;;46.85;21.33;;;0.60;85.60;;;;;;5092786;28;20044;-65
2021/03/04 00:54:22;;;;;;;42.40;20.45;;;0.60;85.60;;;;;;5093482;28;20070;-65
2021/03/04 00:56:48;;;;;;;36.05;19.00;;;0.60;85.50;;;;;;5075542;28;20424;-65
2021/03/04 00:59:14;;;;;;;45.13;21.50;;;0.60;85.80;;;;;;5074416;28;20054;-65
2021/03/04 01:01:40;;;;;;;50.97;22.08;;;0.60;85.80;;;;;;5075064;28;20024;-65
2021/03/04 01:04:05;;;;;;;60.20;26.20;;;0.60;85.90;;;;;;5074414;28;20059;-65
2021/03/04 01:06:31;;;;;;;41.40;20.13;;;0.70;85.90;;;;;;5075108;28;20115;-65
2021/03/04 01:08:57;;;;;;;41.97;20.10;;;0.70;85.90;;;;;;5094837;28;20035;-66
2021/03/04 01:11:22;;;;;;;34.03;16.63;;;0.70;86.00;;;;;;5097197;28;20429;-65
2021/03/04 01:13:48;;;;;;;30.80;15.35;;;0.70;86.00;;;;;;5097477;28;20024;-66
2021/03/04 01:16:14;;;;;;;32.42;17.75;;;0.70;86.00;;;;;;5078844;28;20020;-65
2021/03/04 01:18:39;;;;;;;29.35;15.20;;;0.70;86.10;;;;;;5078955;28;20177;-66
2021/03/04 01:21:06;;;;;;;37.25;16.63;;;0.70;86.30;;;;;;5096513;28;20028;-65
2021/03/04 01:23:32;;;;;;;33.15;14.90;;;0.70;86.20;;;;;;5097089;28;20038;-65
2021/03/04 01:25:58;;;;;;;30.02;13.88;;;0.70;86.30;;;;;;5096798;28;20032;-65
2021/03/04 01:28:25;;;;;;;27.40;14.07;;;0.70;86.30;;;;;;5079044;28;20081;-65
2021/03/04 01:30:51;;;;;;;29.48;14.80;;;0.70;86.40;;;;;;5078959;28;20429;-65
2021/03/04 01:33:18;;;;;;;30.45;15.00;;;0.70;86.60;;;;;;5096465;28;20414;-65
2021/03/04 01:35:44;;;;;;;32.00;14.23;;;0.70;86.70;;;;;;5078599;28;20115;-65
2021/03/04 01:38:10;;;;;;;28.05;14.50;;;0.70;86.80;;;;;;5096836;28;20420;-65
2021/03/04 01:40:36;;;;;;;32.53;16.15;;;0.70;86.70;;;;;;5078280;28;20111;-66
2021/03/04 01:43:02;;;;;;;34.63;17.08;;;0.70;86.80;;;;;;5096460;28;20108;-66
2021/03/04 01:45:28;;;;;;;42.75;19.50;;;0.80;86.70;;;;;;5096480;28;20037;-66
2021/03/04 01:47:55;;;;;;;42.85;19.65;;;0.80;86.80;;;;;;5078138;28;20021;-65
2021/03/04 01:50:26;;;;;;;46.97;20.95;;;0.70;86.70;;;;;;5091451;28;20036;-66
2021/03/04 01:52:53;;;;;;;52.13;22.15;;;0.70;86.70;;;;;;5083092;28;20076;-66
2021/03/04 01:55:19;;;;;;;47.90;21.48;;;0.70;86.70;;;;;;5072308;28;20526;-65
2021/03/04 01:57:46;;;;;;;60.40;24.52;;;0.70;86.50;;;;;;5068614;28;20016;-65
2021/03/04 02:00:14;;;;;;;45.70;20.27;;;0.70;86.50;;;;;;5096611;28;20463;-65
2021/03/04 02:02:40;;;;;;;54.97;23.80;;;0.60;86.40;;;;;;5072538;28;20031;-66
2021/03/04 02:05:11;;;;;;;47.47;19.70;;;0.60;86.50;;;;;;5057577;28;20107;-66
2021/03/04 02:07:58;;;;;;;42.25;17.95;;;0.60;86.60;;;;;;5067669;28;20458;-66
2021/03/04 02:10:42;;;;;;;35.28;15.88;;;0.60;86.70;;;;;;5075709;28;20136;-66
2021/03/04 02:13:34;;;;;;;30.42;15.20;;;0.70;86.90;;;;;;5075730;28;20029;-65
2021/03/04 02:16:15;;;;;;;31.77;13.15;;;0.60;86.90;;;;;;5074365;28;20020;-66
2021/03/04 02:18:45;;;;;;;29.27;14.73;;;0.60;86.90;;;;;;5075119;28;20029;-67
2021/03/04 02:21:45;;;;;;;37.65;15.52;;;0.60;86.90;;;;;;5055771;28;20051;-67
2021/03/04 02:24:21;;;;;;;37.17;18.08;;;0.60;87.10;;;;;;5057905;28;20035;-65
2021/03/04 02:27:01;;;;;;;38.40;17.35;;;0.60;87.20;;;;;;5075524;28;20020;-65
2021/03/04 02:29:29;;;;;;;29.85;15.45;;;0.60;87.10;;;;;;5075467;28;20024;-65
2021/03/04 02:31:58;;;;;;;22.50;10.65;;;0.60;87.20;;;;;;5075101;28;20020;-65
2021/03/04 02:34:27;;;;;;;35.17;16.73;;;0.60;87.00;;;;;;5075515;28;20050;-65
2021/03/04 02:36:54;;;;;;;29.48;12.25;;;0.50;87.00;;;;;;5057271;28;20456;-65
2021/03/04 02:39:20;;;;;;;28.38;12.27;;;0.50;86.80;;;;;;5075122;28;20544;-65
2021/03/04 02:41:46;;;;;;;37.75;16.88;;;0.50;86.90;;;;;;5074848;28;20455;-66
2021/03/04 02:44:13;;;;;;;35.45;16.13;;;0.40;86.90;;;;;;5057142;28;20039;-65
2021/03/04 02:46:40;;;;;;;41.28;19.00;;;0.40;87.30;;;;;;5075257;28;20548;-65
2021/03/04 02:49:07;;;;;;;48.05;21.10;;;0.50;87.30;;;;;;5056874;28;20055;-65
2021/03/04 02:51:35;;;;;;;47.38;18.33;;;0.50;87.30;;;;;;5075014;28;20052;-65
2021/03/04 02:54:02;;;;;;;90.47;34.72;;;0.40;87.00;;;;;;5074784;28;20028;-65
2021/03/04 02:56:29;;;;;;;95.13;37.85;;;0.40;87.20;;;;;;5075047;28;20107;-66
2021/03/04 02:58:58;;;;;;;79.72;30.15;;;0.40;87.30;;;;;;5075047;28;20062;-65
2021/03/04 03:01:25;;;;;;;109.30;42.30;;;0.30;87.40;;;;;;5074917;28;20038;-65
2021/03/04 03:03:53;;;;;;;88.20;35.63;;;0.30;87.50;;;;;;5056935;28;20557;-65
2021/03/04 03:06:21;;;;;;;88.18;31.63;;;0.30;87.60;;;;;;5056994;28;20029;-65
2021/03/04 03:08:47;;;;;;;96.15;34.60;;;0.30;87.50;;;;;;5075078;28;20021;-65
2021/03/04 03:11:17;;;;;;;101.18;39.80;;;0.30;87.30;;;;;;5056184;28;20072;-65
2021/03/04 03:13:46;;;;;;;107.65;41.05;;;0.30;87.30;;;;;;5074810;28;20024;-65
2021/03/04 03:16:12;;;;;;;129.27;47.33;;;0.20;87.50;;;;;;5056358;28;20016;-65
2021/03/04 03:18:38;;;;;;;98.43;35.70;;;0.20;87.60;;;;;;5074634;28;20028;-64
2021/03/04 03:21:04;;;;;;;129.38;44.75;;;0.30;87.70;;;;;;5074094;28;20029;-65
2021/03/04 03:23:30;;;;;;;98.15;36.63;;;0.30;87.70;;;;;;5074371;28;20041;-68
2021/03/04 03:25:56;;;;;;;123.25;43.22;;;0.30;87.60;;;;;;5056297;28;20051;-68
2021/03/04 03:28:22;;;;;;;106.53;38.28;;;0.20;87.60;;;;;;5074132;28;20028;-68
2021/03/04 03:30:48;;;;;;;80.80;32.05;;;0.20;87.70;;;;;;5056446;28;20033;-68
2021/03/04 03:33:17;;;;;;;105.10;37.60;;;0.20;87.70;;;;;;5073268;28;20474;-68
2021/03/04 03:35:44;;;;;;;76.30;29.73;;;0.20;88.10;;;;;;5056441;28;20027;-68
2021/03/04 03:38:12;;;;;;;101.03;37.20;;;0.30;88.10;;;;;;5073957;28;20052;-68
2021/03/04 03:40:41;;;;;;;103.85;37.63;;;0.20;88.20;;;;;;5056091;28;20048;-68
2021/03/04 03:43:10;;;;;;;103.45;37.15;;;0.20;88.30;;;;;;5055799;28;20126;-68
2021/03/04 03:45:41;;;;;;;101.00;36.42;;;0.30;88.50;;;;;;5074392;28;20046;-69
2021/03/04 03:48:10;;;;;;;115.43;42.22;;;0.30;88.40;;;;;;5056091;28;20029;-68
2021/03/04 03:50:36;;;;;;;70.05;26.27;;;0.30;88.40;;;;;;5071226;28;20024;-69
2021/03/04 03:53:03;;;;;;;91.82;33.13;;;0.30;88.20;;;;;;5054940;28;20102;-69
2021/03/04 03:55:29;;;;;;;85.60;31.35;;;0.30;88.20;;;;;;5070186;28;20044;-69
2021/03/04 03:57:56;;;;;;;106.20;41.13;;;0.30;88.30;;;;;;5073060;28;20024;-68
2021/03/04 04:00:26;;;;;;;125.45;44.42;;;0.20;88.30;;;;;;5054682;28;20075;-68
2021/03/04 04:03:00;;;;;;;116.28;41.58;;;0.20;88.30;;;;;;5053938;28;20495;-68
2021/03/04 04:05:26;;;;;;;108.47;40.35;;;0.20;88.30;;;;;;5054363;28;20368;-69
2021/03/04 04:07:59;;;;;;;128.13;50.30;;;0.20;88.40;;;;;;5070016;28;20020;-68
2021/03/04 04:10:27;;;;;;;85.50;34.55;;;0.20;88.60;;;;;;5072495;28;20056;-68
2021/03/04 04:12:53;;;;;;;84.88;34.28;;;0.20;88.70;;;;;;5050093;28;20379;-68
2021/03/04 04:15:20;;;;;;;75.57;28.17;;;0.20;88.80;;;;;;5071823;28;20032;-68
2021/03/04 04:17:47;;;;;;;74.45;29.88;;;0.20;88.90;;;;;;5052982;28;20031;-68
2021/03/04 04:20:13;;;;;;;86.60;35.25;;;0.20;88.80;;;;;;5054380;28;20052;-68
2021/03/04 04:22:40;;;;;;;85.63;33.25;;;0.20;88.90;;;;;;5054388;28;20402;-68
2021/03/04 04:25:07;;;;;;;73.57;29.08;;;0.20;89.00;;;;;;5051727;28;20171;-68
2021/03/04 04:27:33;;;;;;;68.28;26.27;;;0.20;89.20;;;;;;5053134;28;20024;-68
2021/03/04 04:29:58;;;;;;;93.18;35.50;;;0.20;89.10;;;;;;5053929;28;20074;-68
2021/03/04 04:32:24;;;;;;;75.47;27.52;;;0.30;89.20;;;;;;5053533;28;20364;-69
2021/03/04 04:34:50;;;;;;;72.28;28.70;;;0.30;89.20;;;;;;5069814;28;20365;-68
2021/03/04 04:37:15;;;;;;;50.65;23.52;;;0.30;89.50;;;;;;5069313;28;20036;-69
2021/03/04 04:39:41;;;;;;;72.63;29.80;;;0.40;89.80;;;;;;5053779;28;20020;-68
2021/03/04 04:42:08;;;;;;;62.72;29.52;;;0.50;90.00;;;;;;5069628;28;20501;-68
2021/03/04 04:44:34;;;;;;;60.03;27.80;;;0.60;90.10;;;;;;5069156;28;21398;-69
2021/03/04 04:46:59;;;;;;;67.88;27.23;;;0.60;90.00;;;;;;5067808;28;20067;-69
2021/03/04 04:49:25;;;;;;;56.85;26.02;;;0.80;90.10;;;;;;5068201;28;20029;-69
2021/03/04 04:51:51;;;;;;;84.47;33.30;;;0.90;90.00;;;;;;5049667;28;20410;-68
2021/03/04 04:54:17;;;;;;;84.78;34.17;;;1.10;89.80;;;;;;5068900;28;20027;-69
2021/03/04 04:56:43;;;;;;;101.30;40.10;;;1.20;89.40;;;;;;5053573;28;20034;-69
2021/03/04 04:59:08;;;;;;;119.63;44.47;;;1.40;89.40;;;;;;5052856;28;20421;-69
2021/03/04 05:01:34;;;;;;;108.65;42.55;;;1.60;89.20;;;;;;5043586;28;20025;-66
2021/03/04 05:04:00;;;;;;;93.78;32.72;;;1.80;88.70;;;;;;5050137;28;20036;-67
2021/03/04 05:06:25;;;;;;;86.35;34.05;;;2.10;88.00;;;;;;5071156;28;20569;-67
2021/03/04 05:08:51;;;;;;;98.75;41.28;;;2.30;87.70;;;;;;5072310;28;20033;-67
2021/03/04 05:11:17;;;;;;;60.90;26.80;;;2.50;87.80;;;;;;5050401;28;20090;-66
2021/03/04 05:13:44;;;;;;;85.95;33.97;;;2.80;86.70;;;;;;5055175;28;20036;-66
2021/03/04 05:16:10;;;;;;;96.30;41.35;;;3.10;86.90;;;;;;5071260;28;20013;-67
2021/03/04 05:18:37;;;;;;;99.05;44.10;;;3.40;85.10;;;;;;5072866;28;20040;-67
2021/03/04 05:21:03;;;;;;;106.22;45.42;;;3.50;83.60;;;;;;5072293;28;20021;-66
2021/03/04 05:23:28;;;;;;;73.38;28.75;;;3.60;82.70;;;;;;5054733;28;20082;-66
2021/03/04 05:25:54;;;;;;;104.32;44.55;;;3.70;82.60;;;;;;5073019;28;20443;-66
2021/03/04 05:28:20;;;;;;;110.53;45.28;;;4.00;82.20;;;;;;5050823;28;20166;-70
2021/03/04 05:30:46;;;;;;;121.43;47.13;;;4.20;80.80;;;;;;5048877;28;20024;-71
2021/03/04 05:33:12;;;;;;;111.18;41.92;;;4.30;80.10;;;;;;5040494;28;20118;-70
2021/03/04 05:35:37;;;;;;;105.40;43.40;;;4.50;78.90;;;;;;5080170;28;20029;-70
2021/03/04 05:38:03;;;;;;;129.07;48.05;;;4.60;78.40;;;;;;5057142;28;20031;-70
2021/03/04 05:40:29;;;;;;;131.60;53.95;;;4.70;78.10;;;;;;5047542;28;20021;-70
2021/03/04 05:42:57;;;;;;;142.88;56.63;;;4.80;77.20;;;;;;5072124;28;20021;-70
2021/03/04 05:45:24;;;;;;;152.93;56.90;;;5.00;76.50;;;;;;5034131;28;20464;-70
2021/03/04 05:47:52;;;;;;;137.48;56.70;;;5.20;76.60;;;;;;5052138;28;20029;-70
2021/03/04 05:50:20;;;;;;;124.65;51.03;;;5.50;76.20;;;;;;5056952;28;20028;-69
2021/03/04 05:52:54;;;;;;;128.15;53.47;;;5.80;75.70;;;;;;5050283;28;20037;-70
2021/03/04 05:55:20;;;;;;;116.05;47.58;;;6.20;74.40;;;;;;5057503;28;20100;-70
2021/03/04 05:57:50;;;;;;;99.25;40.45;;;6.50;74.00;;;;;;5056824;28;20024;-70
2021/03/04 06:00:16;;;;;;;97.47;43.10;;;6.90;73.50;;;;;;5065656;28;20035;-70
2021/03/04 06:02:45;;;;;;;92.13;41.72;;;7.10;70.70;;;;;;5053311;28;20024;-70
2021/03/04 06:05:15;;;;;;;53.70;22.40;;;7.00;70.20;;;;;;5049488;28;20045;-66
2021/03/04 06:07:45;;;;;;;36.67;19.50;;;7.20;70.00;;;;;;5061160;28;20467;-67
2021/03/04 06:10:12;;;;;;;40.95;22.20;;;7.40;69.40;;;;;;5052382;28;20025;-69
2021/03/04 06:12:38;;;;;;;58.45;25.98;;;7.60;67.90;;;;;;5061702;28;20032;-67
2021/03/04 06:15:06;;;;;;;46.88;23.30;;;7.70;67.50;;;;;;5042477;28;20032;-68
2021/03/04 06:17:32;;;;;;;45.35;22.15;;;7.70;66.70;;;;;;5036866;28;20467;-68
2021/03/04 06:20:04;;;;;;;34.63;18.60;;;7.70;66.20;;;;;;5057283;28;20066;-66
2021/03/04 06:22:37;;;;;;;53.00;24.75;;;8.00;65.60;;;;;;5058855;28;20033;-68
2021/03/04 06:25:11;;;;;;;54.08;26.38;;;8.20;66.30;;;;;;5040141;28;20036;-67
2021/03/04 06:27:39;;;;;;;55.63;29.33;;;8.40;64.90;;;;;;5067549;28;20032;-67
2021/03/04 06:30:11;;;;;;;53.70;25.50;;;8.70;64.40;;;;;;5055675;28;20077;-66
2021/03/04 06:32:42;;;;;;;53.83;27.52;;;8.70;62.90;;;;;;5075922;28;20496;-67
2021/03/04 06:35:12;;;;;;;96.45;40.55;;;8.70;61.90;;;;;;5057112;28;20036;-68
2021/03/04 06:37:43;;;;;;;88.28;42.15;;;8.60;61.90;;;;;;5046974;28;20357;-68
2021/03/04 06:40:24;;;;;;;99.50;42.05;;;8.50;61.30;;;;;;5061997;28;20051;-68
2021/03/04 06:42:51;;;;;;;104.90;49.28;;;8.40;61.20;;;;;;5093487;28;20024;-67
2021/03/04 06:45:27;;;;;;;94.13;41.75;;;8.50;62.40;;;;;;5066228;28;20060;-67
2021/03/04 06:48:05;;;;;;;120.82;47.97;;;8.60;62.60;;;;;;5045909;28;20467;-70
2021/03/04 06:50:31;;;;;;;127.15;52.17;;;8.80;62.20;;;;;;5082988;28;20021;-69
2021/03/04 06:52:57;;;;;;;122.07;53.83;;;9.00;61.80;;;;;;5059310;28;20139;-69
2021/03/04 06:55:23;;;;;;;115.10;48.50;;;9.20;61.10;;;;;;5060766;28;20127;-69
2021/03/04 06:58:02;;;;;;;119.72;54.20;;;9.30;60.10;;;;;;5058034;28;20074;-70
2021/03/04 07:00:29;;;;;;;87.05;41.15;;;9.30;59.50;;;;;;5068432;28;20037;-71
2021/03/04 07:02:56;;;;;;;90.78;43.42;;;9.30;59.50;;;;;;5083330;28;20024;-85
2021/03/04 07:05:26;;;;;;;104.18;44.45;;;9.40;59.60;;;;;;5063412;28;20029;-72
2021/03/04 07:07:54;;;;;;;92.47;41.75;;;9.50;60.60;;;;;;5058455;28;20024;-75
2021/03/04 07:10:21;;;;;;;90.45;40.03;;;9.70;60.40;;;;;;5060642;28;20107;-80
2021/03/04 07:12:48;;;;;;;64.82;30.58;;;9.90;59.90;;;;;;5041914;28;20078;-74
2021/03/04 07:15:16;;;;;;;47.83;25.20;;;10.40;60.50;;;;;;5046817;28;20387;-81
2021/03/04 07:17:43;;;;;;;34.90;20.15;;;11.00;60.60;;;;;;5053374;28;20028;-83
2021/03/04 07:20:19;;;;;;;39.75;20.50;;;11.70;59.60;;;;;;5051247;28;20082;-72
2021/03/04 07:22:47;;;;;;;35.72;19.08;;;12.20;57.80;;;;;;5058941;28;20033;-78
2021/03/04 07:25:14;;;;;;;36.78;20.45;;;12.70;56.80;;;;;;5041871;28;20037;-86
2021/03/04 07:27:40;;;;;;;38.08;18.50;;;13.10;55.40;;;;;;5083650;28;20028;-70
2021/03/04 07:30:08;;;;;;;42.50;21.13;;;13.30;53.30;;;;;;5049197;28;20107;-69
2021/03/04 07:32:34;;;;;;;32.50;17.45;;;13.50;53.00;;;;;;5080118;28;20075;-69
2021/03/04 07:35:01;;;;;;;40.75;22.95;;;13.90;53.20;;;;;;5054478;28;20135;-73
2021/03/04 07:37:27;;;;;;;32.95;19.30;;;14.30;52.10;;;;;;5052173;28;20024;-72
2021/03/04 07:40:00;;;;;;;38.05;19.98;;;14.80;51.80;;;;;;5057017;28;20112;-73
2021/03/04 07:42:27;;;;;;;30.75;18.10;;;15.30;50.90;;;;;;5058231;28;20056;-73
2021/03/04 07:44:53;;;;;;;32.47;17.88;;;15.80;49.10;;;;;;5056534;28;20081;-73
2021/03/04 07:47:26;;;;;;;30.52;17.42;;;16.30;49.30;;;;;;5046895;28;20025;-71
2021/03/04 07:49:53;;;;;;;34.25;17.73;;;16.70;47.20;;;;;;5056003;28;20036;-71
2021/03/04 07:52:23;;;;;;;26.42;17.10;;;16.90;46.90;;;;;;5060975;28;20098;-72
2021/03/04 07:54:51;;;;;;;37.53;17.98;;;17.00;45.60;;;;;;5054569;28;20028;-72
2021/03/04 07:57:19;;;;;;;28.45;16.38;;;17.00;45.40;;;;;;5066441;28;20032;-70
2021/03/04 07:59:54;;;;;;;34.50;18.20;;;17.00;45.80;;;;;;5076135;28;20090;-71
2021/03/04 08:02:32;;;;;;;35.85;19.40;;;17.40;44.20;;;;;;5062367;28;20021;-71
2021/03/04 08:05:16;;;;;;;34.22;20.08;;;17.50;44.00;;;;;;5071143;28;20058;-71
2021/03/04 08:07:44;;;;;;;47.80;24.80;;;17.10;43.00;;;;;;5043605;28;20027;-73
2021/03/04 08:10:12;;;;;;;88.20;38.45;;;16.80;44.00;;;;;;5058555;28;20383;-70
2021/03/04 08:13:00;;;;;;;73.28;35.78;;;16.60;43.20;;;;;;5063172;28;20025;-71
2021/03/04 08:15:34;;;;;;;74.32;33.65;;;16.10;43.40;;;;;;5083716;28;20032;-71
2021/03/04 08:18:01;;;;;;;65.00;31.17;;;15.90;44.30;;;;;;5054866;28;20046;-70
2021/03/04 08:20:27;;;;;;;57.13;29.65;;;15.80;44.50;;;;;;5073497;28;20364;-70
2021/03/04 08:22:55;;;;;;;66.45;32.15;;;15.70;44.10;;;;;;5073279;28;20024;-71
2021/03/04 08:25:31;;;;;;;62.30;30.42;;;15.50;44.00;;;;;;5055287;28;20025;-70
2021/03/04 08:28:02;;;;;;;67.47;31.42;;;15.50;45.10;;;;;;5088486;28;20025;-70
2021/03/04 08:30:38;;;;;;;85.43;39.75;;;15.60;45.00;;;;;;5073372;28;20028;-72
2021/03/04 08:33:08;;;;;;;77.45;36.40;;;15.70;44.20;;;;;;5054825;28;20025;-72
2021/03/04 08:35:41;;;;;;;86.90;40.08;;;15.50;44.20;;;;;;5073517;28;20036;-72
2021/03/04 08:38:08;;;;;;;74.38;34.13;;;15.30;44.60;;;;;;5073269;28;20467;-70
2021/03/04 08:40:45;;;;;;;91.47;41.22;;;15.20;44.50;;;;;;5073160;28;20056;-70
2021/03/04 08:43:25;;;;;;;85.82;37.13;;;15.00;45.60;;;;;;5072629;28;20370;-72
2021/03/04 08:45:53;;;;;;;97.15;44.25;;;15.30;45.70;;;;;;5055032;28;20407;-70
2021/03/04 08:48:19;;;;;;;80.68;38.75;;;15.30;45.30;;;;;;5072872;28;20020;-70
2021/03/04 08:50:47;;;;;;;72.70;35.78;;;15.70;45.20;;;;;;5054736;28;20054;-70
2021/03/04 08:53:15;;;;;;;90.03;42.75;;;15.90;44.70;;;;;;5054642;28;20048;-73
2021/03/04 08:55:55;;;;;;;72.20;34.20;;;16.20;44.90;;;;;;5041480;28;20025;-72
2021/03/04 08:58:25;;;;;;;87.78;40.45;;;16.50;43.70;;;;;;5088356;28;20363;-70
2021/03/04 09:00:56;;;;;;;80.55;37.90;;;16.40;43.30;;;;;;5055109;28;20091;-70
2021/03/04 09:03:23;;;;;;;94.38;40.92;;;16.50;42.70;;;;;;5054816;28;20028;-70
2021/03/04 09:05:50;;;;;;;109.22;49.88;;;16.30;42.40;;;;;;5054740;28;20069;-73
2021/03/04 09:08:17;;;;;;;102.97;47.03;;;15.90;42.50;;;;;;5055145;28;20169;-70
2021/03/04 09:10:45;;;;;;;133.90;57.10;;;15.50;43.40;;;;;;5054851;28;20100;-71
2021/03/04 09:13:19;;;;;;;112.22;49.05;;;15.50;44.10;;;;;;5054633;28;20020;-71
2021/03/04 09:15:50;;;;;;;131.82;56.72;;;15.50;43.90;;;;;;5054509;28;20024;-71
2021/03/04 09:18:16;;;;;;;123.53;52.00;;;15.40;43.70;;;;;;5073074;28;20054;-72
2021/03/04 09:20:44;;;;;;;154.05;68.47;;;15.40;44.20;;;;;;5072987;28;20025;-72
2021/03/04 09:23:11;;;;;;;115.05;50.03;;;15.50;44.50;;;;;;5072211;28;20108;-72
2021/03/04 09:25:37;;;;;;;119.68;49.00;;;15.50;44.20;;;;;;5054682;28;20025;-73
2021/03/04 09:28:05;;;;;;;153.65;64.32;;;15.40;43.70;;;;;;5054283;28;20123;-72
2021/03/04 09:30:33;;;;;;;155.50;68.43;;;15.30;43.70;;;;;;5089624;28;20060;-73
2021/03/04 09:32:59;;;;;;;161.57;67.63;;;15.30;43.90;;;;;;5076466;28;20052;-72
2021/03/04 09:35:25;;;;;;;103.53;43.03;;;15.40;44.60;;;;;;5076518;28;20425;-72
2021/03/04 09:37:51;;;;;;;130.98;56.95;;;15.90;44.60;;;;;;5076879;28;20043;-72
2021/03/04 09:40:30;;;;;;;119.13;51.70;;;16.30;43.60;;;;;;5058417;28;20025;-73
2021/03/04 09:42:57;;;;;;;115.45;47.63;;;16.60;42.90;;;;;;5076143;28;20054;-72
2021/03/04 09:45:23;;;;;;;99.05;43.17;;;16.90;43.40;;;;;;5076354;28;20021;-72
2021/03/04 09:47:51;;;;;;;92.30;43.28;;;17.40;43.20;;;;;;5058632;28;20033;-71
2021/03/04 09:50:27;;;;;;;86.70;42.45;;;17.90;41.30;;;;;;5076069;28;20032;-73
2021/03/04 09:53:02;;;;;;;93.10;43.83;;;17.80;41.10;;;;;;5058510;28;20044;-73
2021/03/04 09:55:36;;;;;;;117.57;47.40;;;17.80;40.50;;;;;;5075942;28;20029;-72
2021/03/04 09:58:09;;;;;;;84.60;38.03;;;17.10;40.20;;;;;;5092002;28;20032;-72
2021/03/04 10:00:35;;;;;;;84.28;37.78;;;16.60;41.10;;;;;;5058236;28;20770;-72
2021/03/04 10:03:07;;;;;;;86.43;36.63;;;16.20;41.40;;;;;;5057783;28;20025;-72
2021/03/04 10:05:33;;;;;;;101.97;44.92;;;15.70;42.50;;;;;;5057926;28;20023;-72
2021/03/04 10:08:08;;;;;;;116.80;50.03;;;15.30;42.90;;;;;;5091259;28;20063;-72
2021/03/04 10:10:35;;;;;;;114.40;43.72;;;15.30;44.00;;;;;;5076071;28;20044;-72
2021/03/04 10:13:01;;;;;;;149.73;60.30;;;15.40;44.00;;;;;;5057593;28;20135;-72
2021/03/04 10:15:35;;;;;;;118.20;49.53;;;15.40;44.30;;;;;;5057918;28;20036;-72
2021/03/04 10:18:21;;;;;;;79.72;39.75;;;15.50;44.20;;;;;;5075642;28;20062;-72
2021/03/04 10:20:47;;;;;;;;;;;15.70;44.30;;;;;;5075967;28;20116;-72
2021/03/04 10:23:14;;;;;;;61.17;24.75;;;15.70;44.40;;;;;;5075329;28;19962;-73
2021/03/04 10:25:41;;;;;;;59.85;27.90;;;15.70;44.00;;;;;;5075558;28;20029;-72
2021/03/04 10:28:07;;;;;;;51.50;26.17;;;15.60;44.10;;;;;;5075363;28;20021;-72
2021/03/04 10:30:34;;;;;;;63.15;30.77;;;15.30;44.10;;;;;;5057469;28;20359;-72
2021/03/04 10:33:07;;;;;;;81.18;35.58;;;15.20;44.60;;;;;;5056803;28;20115;-70
2021/03/04 10:35:35;;;;;;;53.78;26.13;;;15.00;44.50;;;;;;5057863;28;20363;-71
2021/03/04 10:38:01;;;;;;;42.83;21.77;;;15.00;45.20;;;;;;5075522;28;20036;-71
2021/03/04 10:40:27;;;;;;;39.22;19.42;;;15.10;45.50;;;;;;5057054;28;20032;-71
2021/03/04 10:42:52;;;;;;;38.28;16.92;;;15.40;44.70;;;;;;5057045;28;20024;-71
2021/03/04 10:45:19;;;;;;;37.08;19.60;;;15.60;44.90;;;;;;5056636;28;20033;-71
2021/03/04 10:47:46;;;;;;;44.67;24.45;;;15.60;44.20;;;;;;5075354;28;20051;-71
2021/03/04 10:50:15;;;;;;;47.67;23.55;;;15.50;44.40;;;;;;5074818;28;20056;-71
2021/03/04 10:52:41;;;;;;;41.72;19.05;;;15.50;44.30;;;;;;5056742;28;20084;-71
2021/03/04 10:55:08;;;;;;;47.70;24.70;;;15.50;44.60;;;;;;5057063;28;20063;-71
2021/03/04 10:57:34;;;;;;;45.97;22.85;;;15.60;44.20;;;;;;5057361;28;20034;-71
2021/03/04 11:00:00;;;;;;;38.15;19.67;;;15.60;44.70;;;;;;5074856;28;20099;-71
2021/03/04 11:02:26;;;;;;;33.97;19.13;;;16.00;44.90;;;;;;5056959;28;20100;-71
2021/03/04 11:04:51;;;;;;;36.35;20.17;;;16.40;44.20;;;;;;5075194;28;20116;-71
2021/03/04 11:07:17;;;;;;;35.58;20.30;;;16.70;44.10;;;;;;5074461;28;20024;-71
2021/03/04 11:09:43;;;;;;;56.30;25.38;;;17.00;43.90;;;;;;5074842;28;20024;-71
2021/03/04 11:12:09;;;;;;;78.57;32.75;;;17.00;43.20;;;;;;5056585;28;20383;-71
2021/03/04 11:14:35;;;;;;;60.85;27.92;;;16.90;43.20;;;;;;5056496;28;20031;-71
2021/03/04 11:17:01;;;;;;;65.20;29.15;;;16.60;43.20;;;;;;5074533;28;20445;-70
2021/03/04 11:19:27;;;;;;;70.25;26.98;;;16.50;43.20;;;;;;5056537;28;20418;-71
2021/03/04 11:21:53;;;;;;;98.60;42.10;;;16.10;43.10;;;;;;5074801;28;20021;-71
2021/03/04 11:24:19;;;;;;;97.72;42.30;;;15.80;43.60;;;;;;5056123;28;20029;-71
2021/03/04 11:26:44;;;;;;;102.30;45.60;;;15.50;44.30;;;;;;5056292;28;20024;-70
2021/03/04 11:29:11;;;;;;;132.60;59.60;;;15.20;45.00;;;;;;5056183;28;20077;-71
2021/03/04 11:31:38;;;;;;;116.55;49.60;;;15.20;45.40;;;;;;5074527;28;20107;-71
2021/03/04 11:34:04;;;;;;;74.82;31.70;;;15.20;45.40;;;;;;5056573;28;20119;-71
2021/03/04 11:36:31;;;;;;;140.73;59.83;;;15.10;45.10;;;;;;5056143;28;20111;-71
2021/03/04 11:38:57;;;;;;;144.40;59.63;;;14.90;45.40;;;;;;5056113;28;20030;-71
2021/03/04 11:41:23;;;;;;;113.00;45.88;;;14.80;46.10;;;;;;5073994;28;20024;-71
2021/03/04 11:43:49;;;;;;;85.90;41.28;;;15.00;46.20;;;;;;5074224;28;20463;-71
2021/03/04 11:46:15;;;;;;;91.72;37.15;;;15.20;46.30;;;;;;5056617;28;20459;-71
2021/03/04 11:48:41;;;;;;;60.70;27.85;;;15.40;45.50;;;;;;5056083;28;20025;-70
2021/03/04 11:51:07;;;;;;;56.88;22.20;;;15.50;45.20;;;;;;5073672;28;20021;-71
2021/03/04 11:53:33;;;;;;;105.05;44.65;;;15.30;45.30;;;;;;5072938;28;21235;-70
2021/03/04 11:55:59;;;;;;;66.53;34.60;;;15.30;45.50;;;;;;5073623;28;20426;-71
2021/03/04 11:58:26;;;;;;;45.83;23.30;;;15.40;46.70;;;;;;5055502;28;20029;-70
2021/03/04 12:00:53;;;;;;;42.33;22.10;;;15.60;45.90;;;;;;5073760;28;20104;-70
2021/03/04 12:03:20;;;;;;;37.97;18.27;;;15.90;45.70;;;;;;5073630;28;20032;-71
2021/03/04 12:05:45;;;;;;;41.05;21.50;;;16.10;45.30;;;;;;5073527;28;20020;-70
2021/03/04 12:08:11;;;;;;;87.20;39.25;;;16.10;44.80;;;;;;5055777;28;20083;-70
2021/03/04 12:10:37;;;;;;;140.50;61.40;;;15.80;44.40;;;;;;5055519;28;20272;-71
2021/03/04 12:13:04;;;;;;;157.95;66.90;;;15.70;44.70;;;;;;5073302;28;20473;-71
2021/03/04 12:15:30;;;;;;;122.90;49.22;;;15.60;45.40;;;;;;5055367;28;20020;-71
2021/03/04 12:17:55;;;;;;;90.00;36.67;;;15.70;45.90;;;;;;5055492;28;20029;-71
2021/03/04 12:20:21;;;;;;;88.82;36.90;;;15.80;45.50;;;;;;5055547;28;20048;-71
2021/03/04 12:22:47;;;;;;;78.18;36.75;;;15.50;45.50;;;;;;5089107;28;20502;-71
2021/03/04 12:25:13;;;;;;;112.50;47.75;;;15.10;46.20;;;;;;5073127;28;20036;-71
2021/03/04 12:27:39;;;;;;;81.70;33.72;;;14.80;47.00;;;;;;5055905;28;20169;-70
2021/03/04 12:30:06;;;;;;;95.30;37.40;;;14.60;47.00;;;;;;5055240;28;20409;-70
2021/03/04 12:32:32;;;;;;;88.40;36.65;;;14.30;47.10;;;;;;5073215;28;20102;-70
2021/03/04 12:34:58;;;;;;;105.05;44.67;;;13.80;47.70;;;;;;5088510;28;20513;-70